createdAt,value
2019-05-15T00:00:42.286Z,67.22
2019-05-15T00:01:48.772Z,67.20
2019-05-15T00:02:50.678Z,67.23
2019-05-15T00:03:54.851Z,67.24
2019-05-15T00:04:59.045Z,67.13
2019-05-15T00:06:03.262Z,67.42
2019-05-15T00:07:08.902Z,67.33
2019-05-15T00:08:11.617Z,67.11
2019-05-15T00:09:15.802Z,67.35
2019-05-15T00:10:19.995Z,67.45
2019-05-15T00:11:24.171Z,67.41
2019-05-15T00:12:28.621Z,67.50
2019-05-15T00:13:32.524Z,67.33
2019-05-15T00:14:38.861Z,67.47
2019-05-15T00:15:41.053Z,67.68
2019-05-15T00:16:45.245Z,67.62
2019-05-15T00:17:49.399Z,67.58
2019-05-15T00:18:53.652Z,67.78
2019-05-15T00:19:58.182Z,67.93
2019-05-15T00:21:02.047Z,67.99
2019-05-15T00:22:08.524Z,68.11
2019-05-15T00:23:10.409Z,68.45
2019-05-15T00:24:14.597Z,68.33
2019-05-15T00:25:18.957Z,68.28
2019-05-15T00:26:22.892Z,68.32
2019-05-15T00:27:28.515Z,68.19
2019-05-15T00:28:31.259Z,68.28
2019-05-15T00:29:38.496Z,67.89
2019-05-15T00:30:41.691Z,68.46
2019-05-15T00:31:48.348Z,68.17
2019-05-15T00:32:50.022Z,68.00
2019-05-15T00:33:54.272Z,67.79
2019-05-15T00:34:58.520Z,67.31
2019-05-15T00:36:02.681Z,67.02
2019-05-15T00:37:08.993Z,67.22
2019-05-15T00:38:11.088Z,67.71
2019-05-15T00:39:15.353Z,67.86
2019-05-15T00:40:19.553Z,67.63
2019-05-15T00:41:23.671Z,67.68
2019-05-15T00:42:28.470Z,67.77
2019-05-15T00:43:32.055Z,67.73
2019-05-15T00:44:38.535Z,67.99
2019-05-15T00:45:40.362Z,67.94
2019-05-15T00:46:44.502Z,67.69
2019-05-15T00:47:48.898Z,67.58
2019-05-15T00:48:52.745Z,67.45
2019-05-15T00:49:58.104Z,66.97
2019-05-15T00:51:01.182Z,66.89
2019-05-15T00:52:05.416Z,67.56
2019-05-15T00:53:09.530Z,67.49
2019-05-15T00:54:13.681Z,67.06
2019-05-15T00:55:19.122Z,67.67
2019-05-15T00:56:22.072Z,67.35
2019-05-15T00:57:28.354Z,67.72
2019-05-15T00:58:30.468Z,67.46
2019-05-15T00:59:34.634Z,67.64
2019-05-15T01:00:38.792Z,67.44
2019-05-15T01:01:42.990Z,67.34
2019-05-15T01:02:48.687Z,67.50
2019-05-15T01:03:51.347Z,67.35
2019-05-15T01:04:55.504Z,67.16
2019-05-15T01:05:59.700Z,68.03
2019-05-15T01:07:03.913Z,68.00
2019-05-15T01:08:08.356Z,67.69
2019-05-15T01:09:12.229Z,67.53
2019-05-15T01:10:16.512Z,68.09
2019-05-15T01:11:20.746Z,68.31
2019-05-15T01:12:24.957Z,68.43
2019-05-15T01:13:29.096Z,68.78
2019-05-15T01:14:33.264Z,68.59
2019-05-15T01:15:38.638Z,68.68
2019-05-15T01:16:41.617Z,68.91
2019-05-15T01:17:45.777Z,69.48
2019-05-15T01:18:49.980Z,69.73
2019-05-15T01:19:54.126Z,69.56
2019-05-15T01:20:58.777Z,69.71
2019-05-15T01:22:02.425Z,69.81
2019-05-15T01:23:08.914Z,70.21
2019-05-15T01:24:10.813Z,70.38
2019-05-15T01:25:14.978Z,70.39
2019-05-15T01:26:19.163Z,70.37
2019-05-15T01:27:23.410Z,70.06
2019-05-15T01:28:28.920Z,70.34
2019-05-15T01:29:42.000Z,70.19
2019-05-15T01:30:35.863Z,69.97
2019-05-15T01:31:40.025Z,70.27
2019-05-15T01:32:44.103Z,70.28
2019-05-15T01:33:48.429Z,70.50
2019-05-15T01:34:52.491Z,70.46
2019-05-15T01:35:58.899Z,70.26
2019-05-15T01:37:00.847Z,70.37
2019-05-15T01:38:05.034Z,69.86
2019-05-15T01:39:09.244Z,69.63
2019-05-15T01:40:13.391Z,69.33
2019-05-15T01:41:18.917Z,68.99
2019-05-15T01:42:21.809Z,68.78
2019-05-15T01:43:25.975Z,68.96
2019-05-15T01:44:30.126Z,69.26
2019-05-15T01:45:34.343Z,69.14
2019-05-15T01:46:39.311Z,69.17
2019-05-15T01:47:42.710Z,69.35
2019-05-15T01:48:49.122Z,69.38
2019-05-15T01:49:51.161Z,69.08
2019-05-15T01:50:55.300Z,68.73
2019-05-15T01:51:59.466Z,68.68
2019-05-15T01:53:03.658Z,69.16
2019-05-15T01:54:09.059Z,69.22
2019-05-15T01:55:12.063Z,69.05
2019-05-15T01:56:18.581Z,68.62
2019-05-15T01:57:20.497Z,69.16
2019-05-15T01:58:24.681Z,68.72
2019-05-15T01:59:28.841Z,68.99
2019-05-15T02:00:33.067Z,69.19
2019-05-15T02:01:39.274Z,68.55
2019-05-15T02:02:41.386Z,68.83
2019-05-15T02:03:45.556Z,69.33
2019-05-15T02:04:49.764Z,69.21
2019-05-15T02:05:53.931Z,69.40
2019-05-15T02:06:58.903Z,69.56
2019-05-15T02:08:02.290Z,69.65
2019-05-15T02:09:08.315Z,69.56
2019-05-15T02:10:10.732Z,69.92
2019-05-15T02:11:14.837Z,69.56
2019-05-15T02:12:19.266Z,69.90
2019-05-15T02:13:23.198Z,69.91
2019-05-15T02:14:28.487Z,70.18
2019-05-15T02:15:31.662Z,70.07
2019-05-15T02:16:35.784Z,70.64
2019-05-15T02:17:39.998Z,70.59
2019-05-15T02:18:44.106Z,70.74
2019-05-15T02:19:48.653Z,70.65
2019-05-15T02:20:52.526Z,71.08
2019-05-15T02:21:58.060Z,71.03
2019-05-15T02:23:00.832Z,71.00
2019-05-15T02:24:04.980Z,71.18
2019-05-15T02:25:09.178Z,71.04
2019-05-15T02:26:13.365Z,71.35
2019-05-15T02:27:18.715Z,71.18
2019-05-15T02:28:21.662Z,71.06
2019-05-15T02:29:28.393Z,71.02
2019-05-15T02:30:33.852Z,70.93
2019-05-15T02:31:34.173Z,70.88
2019-05-15T02:32:39.579Z,71.10
2019-05-15T02:33:42.545Z,70.96
2019-05-15T02:34:49.748Z,70.72
2019-05-15T02:35:50.867Z,71.03
2019-05-15T02:36:55.041Z,71.00
2019-05-15T02:37:59.819Z,71.06
2019-05-15T02:39:03.348Z,71.04
2019-05-15T02:40:09.973Z,71.12
2019-05-15T02:41:11.737Z,71.13
2019-05-15T02:42:19.029Z,70.98
2019-05-15T02:43:20.180Z,70.98
2019-05-15T02:44:24.334Z,70.72
2019-05-15T02:45:30.083Z,70.12
2019-05-15T02:46:32.699Z,70.17
2019-05-15T02:47:39.337Z,70.10
2019-05-15T02:48:41.294Z,69.94
2019-05-15T02:49:45.128Z,69.82
2019-05-15T02:50:50.289Z,69.49
2019-05-15T02:51:53.493Z,69.86
2019-05-15T02:53:00.454Z,69.97
2019-05-15T02:54:01.823Z,69.85
2019-05-15T02:55:08.946Z,69.52
2019-05-15T02:56:10.191Z,69.66
2019-05-15T02:57:14.427Z,69.42
2019-05-15T02:58:21.261Z,69.15
2019-05-15T02:59:22.808Z,69.51
2019-05-15T03:00:38.000Z,69.63
2019-05-15T03:01:31.192Z,69.77
2019-05-15T03:02:35.351Z,69.50
2019-05-15T03:03:39.509Z,69.55
2019-05-15T03:04:43.685Z,69.79
2019-05-15T03:05:49.803Z,69.70
2019-05-15T03:06:52.042Z,70.09
2019-05-15T03:07:59.295Z,70.16
2019-05-15T03:09:00.439Z,69.65
2019-05-15T03:10:04.590Z,69.71
2019-05-15T03:11:09.749Z,69.93
2019-05-15T03:12:13.073Z,70.37
2019-05-15T03:13:18.903Z,70.16
2019-05-15T03:14:21.776Z,69.98
2019-05-15T03:15:28.690Z,70.31
2019-05-15T03:16:30.520Z,70.26
2019-05-15T03:17:33.984Z,70.18
2019-05-15T03:18:39.726Z,70.25
2019-05-15T03:19:42.338Z,70.30
2019-05-15T03:20:49.780Z,70.49
2019-05-15T03:21:50.622Z,70.56
2019-05-15T03:22:54.726Z,70.56
2019-05-15T03:23:59.588Z,70.80
2019-05-15T03:25:03.038Z,70.81
2019-05-15T03:26:08.855Z,70.79
2019-05-15T03:27:11.356Z,70.73
2019-05-15T03:28:18.780Z,70.43
2019-05-15T03:29:21.159Z,70.60
2019-05-15T03:30:23.940Z,70.36
2019-05-15T03:31:47.808Z,70.22
2019-05-15T03:32:40.843Z,69.98
2019-05-15T03:33:43.048Z,69.90
2019-05-15T03:34:46.728Z,69.87
2019-05-15T03:35:45.129Z,69.62
2019-05-15T03:36:52.986Z,69.71
2019-05-15T03:37:53.070Z,69.49
2019-05-15T03:38:58.672Z,69.51
2019-05-15T03:40:01.404Z,69.44
2019-05-15T03:41:05.534Z,69.64
2019-05-15T03:42:09.787Z,69.79
2019-05-15T03:43:14.025Z,69.84
2019-05-15T03:44:19.754Z,70.00
2019-05-15T03:45:22.320Z,69.96
2019-05-15T03:46:29.114Z,69.76
2019-05-15T03:47:30.690Z,69.59
2019-05-15T03:48:34.828Z,69.40
2019-05-15T03:49:39.717Z,69.36
2019-05-15T03:50:43.256Z,69.47
2019-05-15T03:51:50.054Z,69.28
2019-05-15T03:52:51.690Z,69.51
2019-05-15T03:53:55.783Z,69.24
2019-05-15T03:54:59.895Z,69.25
2019-05-15T03:56:04.075Z,69.29
2019-05-15T03:57:09.766Z,69.19
2019-05-15T03:58:12.460Z,69.10
2019-05-15T03:59:19.188Z,69.08
2019-05-15T04:00:20.813Z,69.45
2019-05-15T04:01:34.378Z,69.56
2019-05-15T04:02:29.180Z,69.50
2019-05-15T04:03:33.355Z,69.77
2019-05-15T04:04:38.926Z,69.97
2019-05-15T04:05:41.740Z,69.98
2019-05-15T04:06:45.874Z,69.85
2019-05-15T04:07:50.037Z,70.17
2019-05-15T04:08:54.258Z,70.23
2019-05-15T04:09:58.852Z,70.35
2019-05-15T04:11:02.592Z,70.55
2019-05-15T04:12:09.425Z,70.21
2019-05-15T04:13:10.930Z,69.64
2019-05-15T04:14:15.234Z,69.37
2019-05-15T04:15:19.408Z,69.73
2019-05-15T04:16:23.555Z,69.48
2019-05-15T04:17:29.500Z,70.05
2019-05-15T04:18:31.941Z,70.13
2019-05-15T04:19:38.849Z,70.42
2019-05-15T04:20:41.026Z,70.08
2019-05-15T04:21:45.100Z,70.12
2019-05-15T04:22:49.234Z,70.37
2019-05-15T04:23:52.955Z,70.09
2019-05-15T04:24:59.184Z,70.27
2019-05-15T04:26:01.222Z,70.33
2019-05-15T04:27:09.597Z,70.26
2019-05-15T04:28:10.082Z,69.91
2019-05-15T04:29:13.776Z,70.42
2019-05-15T04:30:18.964Z,70.84
2019-05-15T04:31:22.202Z,70.98
2019-05-15T04:32:28.907Z,70.49
2019-05-15T04:33:30.628Z,70.91
2019-05-15T04:34:34.787Z,71.36
2019-05-15T04:35:40.026Z,71.12
2019-05-15T04:36:44.619Z,71.56
2019-05-15T04:37:49.444Z,71.46
2019-05-15T04:38:54.675Z,71.18
2019-05-15T04:39:59.732Z,71.54
2019-05-15T04:41:01.996Z,72.32
2019-05-15T04:42:08.242Z,73.23
2019-05-15T04:43:11.176Z,73.58
2019-05-15T04:44:14.656Z,73.12
2019-05-15T04:45:19.635Z,73.39
2019-05-15T04:46:22.957Z,73.41
2019-05-15T04:47:30.177Z,73.25
2019-05-15T04:48:31.311Z,72.83
2019-05-15T04:49:35.467Z,73.12
2019-05-15T04:50:40.398Z,72.80
2019-05-15T04:51:43.966Z,72.14
2019-05-15T04:52:50.139Z,71.75
2019-05-15T04:53:52.347Z,71.36
2019-05-15T04:54:59.599Z,71.49
2019-05-15T04:56:00.822Z,70.85
2019-05-15T04:57:04.973Z,71.18
2019-05-15T04:58:10.297Z,70.98
2019-05-15T04:59:13.501Z,70.68
2019-05-15T05:00:19.882Z,71.51
2019-05-15T05:01:21.884Z,71.55
2019-05-15T05:02:27.533Z,71.10
2019-05-15T05:03:34.150Z,71.38
2019-05-15T05:04:34.457Z,71.42
2019-05-15T05:05:38.918Z,71.03
2019-05-15T05:06:42.896Z,71.07
2019-05-15T05:07:49.057Z,71.39
2019-05-15T05:08:51.256Z,71.25
2019-05-15T05:09:55.534Z,71.36
2019-05-15T05:10:59.732Z,71.70
2019-05-15T05:12:03.924Z,71.91
2019-05-15T05:13:08.915Z,71.41
2019-05-15T05:14:12.331Z,71.64
2019-05-15T05:15:19.029Z,71.72
2019-05-15T05:16:20.731Z,71.13
2019-05-15T05:17:24.915Z,71.80
2019-05-15T05:18:29.927Z,70.86
2019-05-15T05:19:33.420Z,71.03
2019-05-15T05:20:38.235Z,70.80
2019-05-15T05:21:41.927Z,70.41
2019-05-15T05:22:48.215Z,69.97
2019-05-15T05:23:50.420Z,70.59
2019-05-15T05:24:54.492Z,70.71
2019-05-15T05:25:58.800Z,70.64
2019-05-15T05:27:02.909Z,70.45
2019-05-15T05:28:08.720Z,70.33
2019-05-15T05:29:11.580Z,70.67
2019-05-15T05:30:15.741Z,70.06
2019-05-15T05:31:19.966Z,70.08
2019-05-15T05:32:31.988Z,70.46
2019-05-15T05:33:28.844Z,70.30
2019-05-15T05:34:32.737Z,70.77
2019-05-15T05:35:38.757Z,70.89
2019-05-15T05:36:41.280Z,71.81
2019-05-15T05:37:47.942Z,71.07
2019-05-15T05:38:49.716Z,70.26
2019-05-15T05:39:53.991Z,69.96
2019-05-15T05:40:58.834Z,69.02
2019-05-15T05:42:02.483Z,67.86
2019-05-15T05:43:09.311Z,67.03
2019-05-15T05:44:11.026Z,66.97
2019-05-15T05:45:15.330Z,66.55
2019-05-15T05:46:19.537Z,65.95
2019-05-15T05:47:23.865Z,64.96
2019-05-15T05:48:29.247Z,64.93
2019-05-15T05:49:32.407Z,64.31
2019-05-15T05:50:38.498Z,64.09
2019-05-15T05:51:41.050Z,63.59
2019-05-15T05:52:45.291Z,63.81
2019-05-15T05:53:49.579Z,64.32
2019-05-15T05:54:53.909Z,63.77
2019-05-15T05:55:58.234Z,63.81
2019-05-15T05:57:02.459Z,63.57
2019-05-15T05:58:08.162Z,63.32
2019-05-15T05:59:10.950Z,63.78
2019-05-15T06:00:15.271Z,63.60
2019-05-15T06:01:19.548Z,64.22
2019-05-15T06:02:23.932Z,64.17
2019-05-15T06:03:28.312Z,63.91
2019-05-15T06:04:32.392Z,64.30
2019-05-15T06:05:38.751Z,63.45
2019-05-15T06:06:40.950Z,62.74
2019-05-15T06:07:45.222Z,62.85
2019-05-15T06:08:49.544Z,62.01
2019-05-15T06:09:53.780Z,62.92
2019-05-15T06:10:58.660Z,62.08
2019-05-15T06:12:02.315Z,62.80
2019-05-15T06:13:08.666Z,63.55
2019-05-15T06:14:10.879Z,63.58
2019-05-15T06:15:15.173Z,63.22
2019-05-15T06:16:19.365Z,63.63
2019-05-15T06:17:23.796Z,63.76
2019-05-15T06:18:28.306Z,63.63
2019-05-15T06:19:32.268Z,63.95
2019-05-15T06:20:36.628Z,64.99
2019-05-15T06:21:53.652Z,65.38
2019-05-15T06:22:45.177Z,65.01
2019-05-15T06:23:55.186Z,65.91
2019-05-15T06:24:53.927Z,65.41
2019-05-15T06:25:59.234Z,64.54
2019-05-15T06:27:02.533Z,65.82
2019-05-15T06:28:08.957Z,65.33
2019-05-15T06:29:11.116Z,64.89
2019-05-15T06:30:22.147Z,65.01
2019-05-15T06:31:19.651Z,65.29
2019-05-15T06:32:24.012Z,66.01
2019-05-15T06:33:28.254Z,65.47
2019-05-15T06:34:32.630Z,64.73
2019-05-15T06:35:39.225Z,63.36
2019-05-15T06:36:41.367Z,63.93
2019-05-15T06:37:45.618Z,64.35
2019-05-15T06:38:49.907Z,63.11
2019-05-15T06:39:54.184Z,62.31
2019-05-15T06:40:58.496Z,62.49
2019-05-15T06:42:02.791Z,61.83
2019-05-15T06:43:08.751Z,61.88
2019-05-15T06:44:11.445Z,60.45
2019-05-15T06:45:15.665Z,59.11
2019-05-15T06:46:20.002Z,58.48
2019-05-15T06:47:24.296Z,58.78
2019-05-15T06:48:29.002Z,58.60
2019-05-15T06:49:32.932Z,58.88
2019-05-15T06:50:38.298Z,59.16
2019-05-15T06:51:41.517Z,58.11
2019-05-15T06:52:45.807Z,56.93
2019-05-15T06:53:53.144Z,57.20
2019-05-15T06:54:59.089Z,56.61
2019-05-15T06:56:00.918Z,57.05
2019-05-15T06:57:05.252Z,57.81
2019-05-15T06:58:09.510Z,57.69
2019-05-15T06:59:13.844Z,58.63
2019-05-15T07:00:19.166Z,57.85
2019-05-15T07:01:22.448Z,57.09
2019-05-15T07:02:28.533Z,57.35
2019-05-15T07:03:31.028Z,58.24
2019-05-15T07:04:35.325Z,58.43
2019-05-15T07:05:39.702Z,59.24
2019-05-15T07:06:44.087Z,58.08
2019-05-15T07:07:48.880Z,57.65
2019-05-15T07:08:52.685Z,57.73
2019-05-15T07:09:58.209Z,57.70
2019-05-15T07:11:01.380Z,56.69
2019-05-15T07:12:07.935Z,56.98
2019-05-15T07:13:10.042Z,57.03
2019-05-15T07:14:14.407Z,57.25
2019-05-15T07:15:18.680Z,57.41
2019-05-15T07:16:22.968Z,57.39
2019-05-15T07:17:28.705Z,58.00
2019-05-15T07:18:31.703Z,57.64
2019-05-15T07:19:36.046Z,58.83
2019-05-15T07:20:40.294Z,58.06
2019-05-15T07:21:44.650Z,57.92
2019-05-15T07:22:49.262Z,58.28
2019-05-15T07:23:53.284Z,58.72
2019-05-15T07:24:58.302Z,59.23
2019-05-15T07:26:01.920Z,57.70
2019-05-15T07:27:08.000Z,58.37
2019-05-15T07:28:10.613Z,57.61
2019-05-15T07:29:14.961Z,57.45
2019-05-15T07:30:19.214Z,57.59
2019-05-15T07:31:23.597Z,57.92
2019-05-15T07:32:28.545Z,58.19
2019-05-15T07:33:39.365Z,58.21
2019-05-15T07:34:37.881Z,57.10
2019-05-15T07:35:40.842Z,56.94
2019-05-15T07:36:45.086Z,56.93
2019-05-15T07:37:49.519Z,57.11
2019-05-15T07:38:53.741Z,56.99
2019-05-15T07:39:59.054Z,57.19
2019-05-15T07:41:04.463Z,58.60
2019-05-15T07:42:08.567Z,57.28
2019-05-15T07:43:11.086Z,58.05
2019-05-15T07:44:15.393Z,56.49
2019-05-15T07:45:19.911Z,56.14
2019-05-15T07:46:23.953Z,56.23
2019-05-15T07:47:29.313Z,56.52
2019-05-15T07:48:32.581Z,56.00
2019-05-15T07:49:38.847Z,56.45
2019-05-15T07:50:41.168Z,57.37
2019-05-15T07:51:45.483Z,56.71
2019-05-15T07:52:49.818Z,57.34
2019-05-15T07:53:54.122Z,57.79
2019-05-15T07:54:58.465Z,57.33
2019-05-15T07:56:02.711Z,57.22
2019-05-15T07:57:08.977Z,56.76
2019-05-15T07:58:11.357Z,57.59
2019-05-15T07:59:15.660Z,57.65
2019-05-15T08:00:19.915Z,56.18
2019-05-15T08:01:24.205Z,56.67
2019-05-15T08:02:28.560Z,56.16
2019-05-15T08:03:32.901Z,55.71
2019-05-15T08:04:38.037Z,56.06
2019-05-15T08:05:55.022Z,56.10
2019-05-15T08:06:45.812Z,55.52
2019-05-15T08:07:50.128Z,56.72
2019-05-15T08:08:54.448Z,56.57
2019-05-15T08:09:59.361Z,56.81
2019-05-15T08:11:16.112Z,56.56
2019-05-15T08:12:08.276Z,57.02
2019-05-15T08:13:11.767Z,56.48
2019-05-15T08:14:18.306Z,56.24
2019-05-15T08:15:20.420Z,54.58
2019-05-15T08:16:24.716Z,55.12
2019-05-15T08:17:29.137Z,54.51
2019-05-15T08:18:33.491Z,53.91
2019-05-15T08:19:38.473Z,53.72
2019-05-15T08:20:42.148Z,52.15
2019-05-15T08:21:51.396Z,52.38
2019-05-15T08:22:50.776Z,52.79
2019-05-15T08:23:55.134Z,53.27
2019-05-15T08:24:59.651Z,51.48
2019-05-15T08:26:03.830Z,52.15
2019-05-15T08:27:08.385Z,52.86
2019-05-15T08:28:12.530Z,51.98
2019-05-15T08:29:21.479Z,50.46
2019-05-15T08:30:21.215Z,52.59
2019-05-15T08:31:25.477Z,52.59
2019-05-15T08:32:29.818Z,52.91
2019-05-15T08:33:34.245Z,50.99
2019-05-15T08:34:38.751Z,51.83
2019-05-15T08:35:45.857Z,52.70
2019-05-15T08:36:48.191Z,52.88
2019-05-15T08:37:51.553Z,52.90
2019-05-15T08:38:55.859Z,52.05
2019-05-15T08:40:00.178Z,49.51
2019-05-15T08:41:04.580Z,49.98
2019-05-15T08:42:08.906Z,50.61
2019-05-15T08:43:13.274Z,51.69
2019-05-15T08:44:18.716Z,51.95
2019-05-15T08:45:21.971Z,50.94
2019-05-15T08:46:27.962Z,48.97
2019-05-15T08:47:30.646Z,49.97
2019-05-15T08:48:34.921Z,51.47
2019-05-15T08:49:40.909Z,50.31
2019-05-15T08:50:43.612Z,49.02
2019-05-15T08:51:48.640Z,49.47
2019-05-15T08:52:52.327Z,50.03
2019-05-15T08:53:57.947Z,51.86
2019-05-15T08:55:01.041Z,51.23
2019-05-15T08:56:05.449Z,51.02
2019-05-15T08:57:09.775Z,49.56
2019-05-15T08:58:14.246Z,49.29
2019-05-15T08:59:18.890Z,50.80
2019-05-15T09:00:22.668Z,50.64
2019-05-15T09:01:28.801Z,49.00
2019-05-15T09:02:31.331Z,49.32
2019-05-15T09:03:37.901Z,49.06
2019-05-15T09:04:39.997Z,49.42
2019-05-15T09:05:44.404Z,49.56
2019-05-15T09:06:49.683Z,50.36
2019-05-15T09:07:53.063Z,49.76
2019-05-15T09:08:58.525Z,50.21
2019-05-15T09:10:01.641Z,50.71
2019-05-15T09:11:08.455Z,51.24
2019-05-15T09:12:10.343Z,51.30
2019-05-15T09:13:14.709Z,51.13
2019-05-15T09:14:19.010Z,51.03
2019-05-15T09:15:23.343Z,49.41
2019-05-15T09:16:28.113Z,50.50
2019-05-15T09:17:32.073Z,50.41
2019-05-15T09:18:38.923Z,50.18
2019-05-15T09:19:40.739Z,51.00
2019-05-15T09:20:44.942Z,50.67
2019-05-15T09:21:49.602Z,49.79
2019-05-15T09:22:53.593Z,49.28
2019-05-15T09:23:58.881Z,49.60
2019-05-15T09:25:02.321Z,50.28
2019-05-15T09:26:09.268Z,49.66
2019-05-15T09:27:10.902Z,49.90
2019-05-15T09:28:15.219Z,50.87
2019-05-15T09:29:19.485Z,49.97
2019-05-15T09:30:23.791Z,51.38
2019-05-15T09:31:28.579Z,50.48
2019-05-15T09:32:32.444Z,50.16
2019-05-15T09:33:38.648Z,48.94
2019-05-15T09:34:50.975Z,49.53
2019-05-15T09:35:45.449Z,49.22
2019-05-15T09:36:49.779Z,50.12
2019-05-15T09:37:54.060Z,49.26
2019-05-15T09:38:58.651Z,47.15
2019-05-15T09:40:02.820Z,47.08
2019-05-15T09:41:09.031Z,47.75
2019-05-15T09:42:11.469Z,47.24
2019-05-15T09:43:17.987Z,48.59
2019-05-15T09:44:21.606Z,48.48
2019-05-15T09:45:24.591Z,47.94
2019-05-15T09:46:29.287Z,46.65
2019-05-15T09:47:33.276Z,46.71
2019-05-15T09:48:39.047Z,47.76
2019-05-15T09:49:41.937Z,47.42
2019-05-15T09:50:46.189Z,47.25
2019-05-15T09:51:50.496Z,46.21
2019-05-15T09:52:54.804Z,47.17
2019-05-15T09:53:59.700Z,49.58
2019-05-15T09:55:03.436Z,47.87
2019-05-15T09:56:08.167Z,48.55
2019-05-15T09:57:12.132Z,47.49
2019-05-15T09:58:19.643Z,48.58
2019-05-15T09:59:20.901Z,48.00
2019-05-15T10:00:25.143Z,47.93
2019-05-15T10:01:29.470Z,47.22
2019-05-15T10:02:33.766Z,48.44
2019-05-15T10:03:39.581Z,48.85
2019-05-15T10:04:42.534Z,46.41
2019-05-15T10:05:48.280Z,48.31
2019-05-15T10:06:51.218Z,45.79
2019-05-15T10:07:55.581Z,46.50
2019-05-15T10:08:59.864Z,47.59
2019-05-15T10:10:04.177Z,47.70
2019-05-15T10:11:09.268Z,48.59
2019-05-15T10:12:12.919Z,47.52
2019-05-15T10:13:18.416Z,48.57
2019-05-15T10:14:21.502Z,47.60
2019-05-15T10:15:25.839Z,47.32
2019-05-15T10:16:30.151Z,45.26
2019-05-15T10:17:34.580Z,47.99
2019-05-15T10:18:39.349Z,47.13
2019-05-15T10:19:43.219Z,46.48
2019-05-15T10:20:47.616Z,47.85
2019-05-15T10:21:53.502Z,46.12
2019-05-15T10:22:56.219Z,45.44
2019-05-15T10:24:00.635Z,44.95
2019-05-15T10:25:04.999Z,45.56
2019-05-15T10:26:13.569Z,46.16
2019-05-15T10:27:13.723Z,46.44
2019-05-15T10:28:18.743Z,47.19
2019-05-15T10:29:22.435Z,47.13
2019-05-15T10:30:28.359Z,47.17
2019-05-15T10:31:31.134Z,46.61
2019-05-15T10:32:35.442Z,47.74
2019-05-15T10:33:39.714Z,47.04
2019-05-15T10:34:44.120Z,46.65
2019-05-15T10:35:48.480Z,46.22
2019-05-15T10:36:52.790Z,45.92
2019-05-15T10:37:59.215Z,47.70
2019-05-15T10:39:01.542Z,46.42
2019-05-15T10:40:05.849Z,47.08
2019-05-15T10:41:15.024Z,47.32
2019-05-15T10:42:14.425Z,46.87
2019-05-15T10:43:20.491Z,45.28
2019-05-15T10:44:23.234Z,45.14
2019-05-15T10:45:29.581Z,47.03
2019-05-15T10:46:31.909Z,47.06
2019-05-15T10:47:38.751Z,44.54
2019-05-15T10:48:40.624Z,45.66
2019-05-15T10:49:44.989Z,44.67
2019-05-15T10:50:49.348Z,44.08
2019-05-15T10:51:53.631Z,45.77
2019-05-15T10:52:58.089Z,45.78
2019-05-15T10:54:02.425Z,45.18
2019-05-15T10:55:09.265Z,45.00
2019-05-15T10:56:11.190Z,43.94
2019-05-15T10:57:15.531Z,43.87
2019-05-15T10:58:22.053Z,44.71
2019-05-15T10:59:24.293Z,46.13
2019-05-15T11:00:28.770Z,44.98
2019-05-15T11:01:32.954Z,44.52
2019-05-15T11:02:39.342Z,44.79
2019-05-15T11:03:41.764Z,45.09
2019-05-15T11:04:48.586Z,42.92
2019-05-15T11:05:50.421Z,43.26
2019-05-15T11:06:54.848Z,42.89
2019-05-15T11:07:59.139Z,44.01
2019-05-15T11:09:03.458Z,44.38
2019-05-15T11:10:08.609Z,45.03
2019-05-15T11:11:12.078Z,43.70
2019-05-15T11:12:18.844Z,42.81
2019-05-15T11:13:20.744Z,44.23
2019-05-15T11:14:25.083Z,42.69
2019-05-15T11:15:29.449Z,43.84
2019-05-15T11:16:33.826Z,42.81
2019-05-15T11:17:38.676Z,44.54
2019-05-15T11:18:42.623Z,42.39
2019-05-15T11:19:49.933Z,41.77
2019-05-15T11:20:51.151Z,42.38
2019-05-15T11:21:55.471Z,42.74
2019-05-15T11:22:59.795Z,44.14
2019-05-15T11:24:04.214Z,42.31
2019-05-15T11:25:09.903Z,42.77
2019-05-15T11:26:12.915Z,41.43
2019-05-15T11:27:19.088Z,40.32
2019-05-15T11:28:21.604Z,40.88
2019-05-15T11:29:25.959Z,41.15
2019-05-15T11:30:30.369Z,42.34
2019-05-15T11:31:34.751Z,41.29
2019-05-15T11:32:39.416Z,40.50
2019-05-15T11:33:43.469Z,40.18
2019-05-15T11:34:49.299Z,40.70
2019-05-15T11:36:01.197Z,40.87
2019-05-15T11:36:59.095Z,40.20
2019-05-15T11:38:00.831Z,38.91
2019-05-15T11:39:05.186Z,39.80
2019-05-15T11:40:10.469Z,39.78
2019-05-15T11:41:13.894Z,39.67
2019-05-15T11:42:20.273Z,39.85
2019-05-15T11:43:22.514Z,39.25
2019-05-15T11:44:28.315Z,40.73
2019-05-15T11:45:31.273Z,41.13
2019-05-15T11:46:35.555Z,40.67
2019-05-15T11:47:40.418Z,39.88
2019-05-15T11:48:44.331Z,40.42
2019-05-15T11:49:48.555Z,41.36
2019-05-15T11:50:52.982Z,40.51
2019-05-15T11:52:00.554Z,39.88
2019-05-15T11:53:01.701Z,38.22
2019-05-15T11:54:08.195Z,37.88
2019-05-15T11:55:10.568Z,39.18
2019-05-15T11:56:14.945Z,39.38
2019-05-15T11:57:19.341Z,38.74
2019-05-15T11:58:23.653Z,39.10
2019-05-15T11:59:30.054Z,40.53
2019-05-15T12:00:32.404Z,40.83
2019-05-15T12:01:38.282Z,39.41
2019-05-15T12:02:41.076Z,38.04
2019-05-15T12:03:45.491Z,38.47
2019-05-15T12:04:49.887Z,38.38
2019-05-15T12:05:54.191Z,38.66
2019-05-15T12:07:02.309Z,38.77
2019-05-15T12:08:02.826Z,38.99
2019-05-15T12:09:09.092Z,38.87
2019-05-15T12:10:11.568Z,38.06
2019-05-15T12:11:31.234Z,38.99
2019-05-15T12:12:20.281Z,39.71
2019-05-15T12:13:24.667Z,37.55
2019-05-15T12:14:29.731Z,37.30
2019-05-15T12:15:33.336Z,37.58
2019-05-15T12:16:39.884Z,38.46
2019-05-15T12:17:42.140Z,37.59
2019-05-15T12:18:48.352Z,38.49
2019-05-15T12:19:55.129Z,38.94
2019-05-15T12:20:55.188Z,37.91
2019-05-15T12:21:59.964Z,38.59
2019-05-15T12:23:03.796Z,38.67
2019-05-15T12:24:09.023Z,38.84
2019-05-15T12:25:12.526Z,37.60
2019-05-15T12:26:16.838Z,37.90
2019-05-15T12:27:21.149Z,38.27
2019-05-15T12:28:25.536Z,37.46
2019-05-15T12:29:30.098Z,37.99
2019-05-15T12:30:34.334Z,37.88
2019-05-15T12:31:39.085Z,38.18
2019-05-15T12:32:43.178Z,37.80
2019-05-15T12:33:48.961Z,38.93
2019-05-15T12:34:51.953Z,37.22
2019-05-15T12:35:56.348Z,37.13
2019-05-15T12:37:00.750Z,37.21
2019-05-15T12:38:05.124Z,36.57
2019-05-15T12:39:13.636Z,36.24
2019-05-15T13:00:38.302Z,35.73
2019-05-15T13:01:40.978Z,36.08
2019-05-15T13:02:45.324Z,36.09
2019-05-15T13:03:49.635Z,36.33
2019-05-15T13:04:53.934Z,36.60
2019-05-15T13:05:58.349Z,36.91
2019-05-15T13:07:12.656Z,35.61
2019-05-15T13:08:08.398Z,35.66
2019-05-15T13:09:11.325Z,36.55
2019-05-15T13:10:18.239Z,36.24
2019-05-15T13:11:20.048Z,35.50
2019-05-15T13:12:24.304Z,35.95
2019-05-15T13:13:28.693Z,35.57
2019-05-15T13:14:33.091Z,36.02
2019-05-15T13:15:41.114Z,37.02
2019-05-15T13:16:41.742Z,36.72
2019-05-15T13:17:46.129Z,36.98
2019-05-15T13:18:50.478Z,37.68
2019-05-15T13:19:54.714Z,37.53
2019-05-15T13:20:59.715Z,38.33
2019-05-15T13:22:03.431Z,39.52
2019-05-15T13:23:07.764Z,38.16
2019-05-15T13:24:12.097Z,38.76
2019-05-15T13:25:18.708Z,38.82
2019-05-15T13:26:26.199Z,39.69
2019-05-15T13:27:25.186Z,39.82
2019-05-15T13:28:29.644Z,41.11
2019-05-15T13:29:33.888Z,40.53
2019-05-15T13:30:41.229Z,38.76
2019-05-15T13:31:42.484Z,38.98
2019-05-15T13:32:49.413Z,37.76
2019-05-15T13:33:51.120Z,38.62
2019-05-15T13:34:55.418Z,37.70
2019-05-15T13:35:59.833Z,38.58
2019-05-15T13:37:04.085Z,37.92
2019-05-15T13:38:10.005Z,38.98
2019-05-15T13:39:12.771Z,39.46
2019-05-15T13:40:18.610Z,39.00
2019-05-15T13:41:21.404Z,39.33
2019-05-15T13:42:27.948Z,37.82
2019-05-15T13:43:30.022Z,37.66
2019-05-15T13:44:34.355Z,37.94
2019-05-15T13:45:39.013Z,37.33
2019-05-15T13:46:42.971Z,36.88
2019-05-15T13:47:47.269Z,37.75
2019-05-15T13:48:51.688Z,38.13
2019-05-15T13:49:55.924Z,38.45
2019-05-15T13:51:00.325Z,37.52
2019-05-15T13:52:04.587Z,36.73
2019-05-15T13:53:10.865Z,36.88
2019-05-15T13:54:13.348Z,38.67
2019-05-15T13:55:24.786Z,38.68
2019-05-15T13:56:21.990Z,38.32
2019-05-15T13:57:29.400Z,39.24
2019-05-15T13:58:30.585Z,37.82
2019-05-15T13:59:34.958Z,37.82
2019-05-15T14:00:39.524Z,39.45
2019-05-15T14:01:43.544Z,37.12
2019-05-15T14:02:48.102Z,37.31
2019-05-15T14:03:52.175Z,36.65
2019-05-15T14:04:58.263Z,36.95
2019-05-15T14:06:00.822Z,36.70
2019-05-15T14:07:05.156Z,36.35
2019-05-15T14:08:09.467Z,35.82